Time;durP1;ratioP1;P1;durP2;ratioP2;P2;SDS_P1;SDS_P2;PMS_P1;PMS_P2;Temp;Humidity;BMP_temperature;BMP_pressure;BME280_temperature;BME280_humidity;BME280_pressure;Samples;Min_cycle;Max_cycle;Signal;HPM_P1;HPM_P2
2020/12/24 00:02:10;;;;;;;14.04;8.69;;;9.60;99.90;;;14.76;95.88;100499.13;1686768;74;25081;-81
2020/12/24 00:04:26;;;;;;;12.89;7.21;;;9.60;99.90;;;14.75;94.95;100495.63;1690108;75;24438;-80
2020/12/24 00:06:44;;;;;;;10.16;7.39;;;9.60;99.90;;;14.72;95.63;100494.80;1687625;75;24477;-80
2020/12/24 00:09:00;;;;;;;3.82;2.32;;;9.60;99.90;;;14.79;95.40;100494.73;1693839;75;24926;-81
2020/12/24 00:11:21;;;;;;;3.50;2.22;;;9.60;99.90;;;14.84;95.37;100495.98;1684962;75;24932;-80
2020/12/24 00:13:38;;;;;;;2.95;2.23;;;9.60;99.90;;;14.69;94.83;100494.83;1691914;75;24432;-81
2020/12/24 00:15:55;;;;;;;4.74;2.13;;;9.60;99.90;;;14.60;95.18;100485.78;1687491;74;24473;-82
2020/12/24 00:18:12;;;;;;;5.53;2.82;;;9.50;99.90;;;14.65;94.83;100487.91;1683564;75;24892;-80
2020/12/24 00:20:28;;;;;;;4.03;2.17;;;9.60;99.90;;;14.76;94.81;100482.09;1692210;75;24445;-81
2020/12/24 00:22:45;;;;;;;6.19;2.57;;;9.60;99.90;;;14.92;94.92;100467.45;1688788;75;24517;-80
2020/12/24 00:25:01;;;;;;;4.81;2.70;;;9.60;99.90;;;14.69;94.14;100472.13;1687014;74;24425;-81
2020/12/24 00:27:17;;;;;;;8.67;3.00;;;9.60;99.90;;;14.71;94.23;100465.55;1683161;75;24499;-79
2020/12/24 00:29:33;;;;;;;6.88;2.33;;;9.70;99.90;;;14.58;94.79;100463.95;1684410;75;24522;-79
2020/12/24 00:31:50;;;;;;;7.64;2.12;;;9.70;99.90;;;14.54;94.63;100457.03;1690767;74;24865;-82
2020/12/24 00:34:08;;;;;;;10.02;2.96;;;9.70;99.90;;;14.39;94.67;100450.64;1680202;75;24457;-78
2020/12/24 00:36:25;;;;;;;5.70;2.08;;;9.70;99.90;;;14.48;95.02;100453.17;1694905;75;25250;-81
2020/12/24 00:38:42;;;;;;;7.09;2.25;;;9.70;99.90;;;14.47;95.69;100450.11;1688639;74;24903;-80
2020/12/24 00:40:58;;;;;;;7.71;2.49;;;9.70;99.90;;;14.48;94.89;100450.55;1689940;75;24475;-81
2020/12/24 00:43:14;;;;;;;8.21;2.39;;;9.80;99.90;;;14.43;95.13;100448.43;1690707;74;24502;-80
2020/12/24 00:45:32;;;;;;;3.64;1.79;;;9.80;99.90;;;14.62;96.17;100448.17;1675589;74;24437;-83
2020/12/24 00:47:50;;;;;;;7.36;2.35;;;9.80;99.90;;;14.50;95.22;100446.14;1685346;75;24503;-79
2020/12/24 00:50:07;;;;;;;6.88;2.70;;;9.80;99.90;;;14.71;95.27;100456.38;1680953;75;24889;-81
2020/12/24 00:52:23;;;;;;;7.31;1.75;;;9.90;99.90;;;14.63;95.65;100460.41;1681153;75;24586;-80
2020/12/24 00:54:40;;;;;;;5.50;2.12;;;9.80;99.90;;;14.29;95.83;100453.80;1663837;76;24487;-79
2020/12/24 00:56:56;;;;;;;6.51;2.31;;;9.90;99.90;;;14.67;95.61;100459.47;1685832;75;24443;-82
2020/12/24 00:59:14;;;;;;;8.51;2.36;;;9.90;99.90;;;14.71;94.34;100451.13;1689157;75;24926;-80
2020/12/24 01:01:40;;;;;;;7.28;2.18;;;9.90;99.90;;;14.58;93.93;100460.91;1678677;75;24701;-82
2020/12/24 01:03:56;;;;;;;8.52;2.31;;;9.80;99.90;;;14.44;93.17;100464.13;1680885;75;24907;-80
2020/12/24 01:06:13;;;;;;;8.20;2.23;;;9.80;99.90;;;14.64;93.06;100458.63;1680322;75;24630;-80
2020/12/24 01:08:29;;;;;;;6.77;1.99;;;9.80;99.90;;;14.45;93.16;100450.56;1674244;75;24478;-80
2020/12/24 01:10:45;;;;;;;7.94;2.40;;;9.80;99.90;;;14.48;93.17;100451.41;1689227;75;25041;-81
2020/12/24 01:13:04;;;;;;;7.87;2.42;;;9.80;99.90;;;14.45;92.66;100450.13;1682469;75;24534;-80
2020/12/24 01:15:22;;;;;;;6.52;2.33;;;9.70;99.90;;;14.35;92.30;100448.48;1683383;75;24438;-81
2020/12/24 01:17:38;;;;;;;4.46;1.89;;;9.70;99.90;;;14.02;93.56;100450.11;1677537;75;24439;-81
2020/12/24 01:19:54;;;;;;;6.93;2.32;;;9.70;99.90;;;14.10;93.67;100456.61;1684980;75;24504;-79
2020/12/24 01:22:11;;;;;;;6.11;2.32;;;9.70;99.90;;;14.14;93.46;100459.61;1681521;75;24450;-80
2020/12/24 01:24:27;;;;;;;6.77;2.38;;;9.70;99.90;;;14.34;92.63;100452.00;1684572;75;24443;-80
2020/12/24 01:26:51;;;;;;;3.56;1.54;;;9.60;99.90;;;14.18;92.26;100458.71;1653184;77;24455;-83
2020/12/24 01:29:07;;;;;;;8.05;1.59;;;9.60;99.90;;;13.79;93.12;100462.56;1688559;74;24853;-80
2020/12/24 01:31:24;;;;;;;2.48;1.12;;;9.60;99.90;;;14.06;92.19;100450.96;1672702;75;24458;-81
2020/12/24 01:33:41;;;;;;;1.29;0.99;;;9.60;99.90;;;13.87;92.54;100460.75;1684044;75;24438;-80
2020/12/24 01:35:58;;;;;;;1.49;0.77;;;9.50;99.90;;;13.81;92.10;100462.11;1691103;75;24474;-83
2020/12/24 01:38:14;;;;;;;1.96;0.93;;;9.50;99.90;;;13.67;91.58;100461.36;1688830;75;24441;-78
2020/12/24 01:40:31;;;;;;;3.23;0.95;;;9.50;99.90;;;13.79;90.83;100446.86;1692195;75;24530;-83
2020/12/24 01:42:49;;;;;;;2.65;1.08;;;9.50;99.90;;;13.64;90.12;100449.62;1675071;75;24900;-81
2020/12/24 01:45:06;;;;;;;1.47;0.90;;;9.50;99.90;;;13.81;88.92;100458.19;1681726;75;24977;-79
2020/12/24 01:47:22;;;;;;;3.91;1.13;;;9.50;99.90;;;13.78;88.72;100457.34;1692588;75;24474;-80
2020/12/24 01:49:38;;;;;;;3.41;1.27;;;9.40;99.90;;;13.77;88.34;100449.92;1684966;75;24466;-79
2020/12/24 01:51:57;;;;;;;3.41;1.56;;;9.40;99.90;;;13.72;88.70;100451.70;1679803;75;24471;-81
2020/12/24 01:54:15;;;;;;;7.01;1.92;;;9.40;99.90;;;13.87;88.21;100437.63;1681978;75;24496;-83
2020/12/24 01:56:32;;;;;;;5.35;1.54;;;9.30;99.90;;;13.76;89.15;100444.70;1682178;75;24551;-82
2020/12/24 01:58:50;;;;;;;7.82;1.82;;;9.30;99.90;;;13.64;88.55;100437.84;1688308;75;24429;-80
2020/12/24 02:01:11;;;;;;;8.45;1.90;;;9.30;99.90;;;13.72;89.11;100446.93;1677488;75;24450;-81
2020/12/24 02:03:28;;;;;;;7.25;2.38;;;9.20;99.90;;;13.72;89.21;100441.70;1685104;75;24877;-81
2020/12/24 02:05:46;;;;;;;7.70;1.75;;;9.30;99.90;;;13.84;88.79;100440.27;1677137;75;24458;-82
2020/12/24 02:08:02;;;;;;;7.81;2.21;;;9.20;99.90;;;13.81;88.65;100439.87;1688703;75;24435;-81
2020/12/24 02:10:18;;;;;;;7.74;2.28;;;9.20;99.90;;;14.07;88.14;100452.72;1698175;75;24503;-80
2020/12/24 02:12:34;;;;;;;6.25;2.02;;;9.30;99.90;;;14.10;88.32;100435.66;1679459;75;24883;-79
2020/12/24 02:14:50;;;;;;;6.78;2.30;;;9.30;99.90;;;13.95;88.52;100441.03;1683309;75;24434;-80
2020/12/24 02:17:07;;;;;;;7.45;2.15;;;9.30;99.90;;;13.98;89.07;100442.31;1676445;75;24943;-80
2020/12/24 02:19:23;;;;;;;6.22;1.90;;;9.40;99.90;;;14.18;87.88;100441.23;1690173;75;24955;-82
2020/12/24 02:21:39;;;;;;;7.48;2.56;;;9.40;99.90;;;14.13;88.05;100433.86;1677238;75;24527;-81
2020/12/24 02:23:55;;;;;;;5.07;2.10;;;9.50;99.90;;;14.24;88.74;100442.93;1685611;74;24462;-81
2020/12/24 02:26:13;;;;;;;6.89;2.22;;;9.50;99.90;;;14.18;88.54;100450.39;1693284;75;24433;-81
2020/12/24 02:28:29;;;;;;;6.62;2.15;;;9.50;99.90;;;14.26;88.08;100443.79;1682641;75;24484;-81
2020/12/24 02:30:45;;;;;;;6.52;1.77;;;9.50;99.90;;;14.19;88.44;100456.51;1683675;75;24922;-80
2020/12/24 02:33:01;;;;;;;7.18;2.28;;;9.50;99.90;;;14.14;87.93;100447.39;1686986;75;24503;-80
2020/12/24 02:35:17;;;;;;;7.56;2.29;;;9.50;99.90;;;13.93;88.14;100446.28;1680473;75;24486;-78
2020/12/24 02:37:34;;;;;;;7.89;2.43;;;9.50;99.90;;;14.11;87.85;100441.31;1682850;75;24429;-81
2020/12/24 02:40:06;;;;;;;4.69;1.87;;;9.50;99.90;;;13.99;87.85;100436.21;1682843;75;24888;-80
2020/12/24 02:42:25;;;;;;;9.64;2.48;;;9.50;99.90;;;13.96;87.73;100448.02;1679896;75;24895;-81
2020/12/24 02:44:41;;;;;;;7.77;2.00;;;9.40;99.90;;;14.08;88.69;100443.97;1689062;75;24481;-80
2020/12/24 02:46:59;;;;;;;5.64;1.97;;;9.50;99.90;;;13.92;87.74;100444.56;1674474;75;24438;-80
2020/12/24 02:49:15;;;;;;;8.54;2.12;;;9.40;99.90;;;13.90;87.67;100440.20;1680236;75;24521;-81
2020/12/24 02:51:31;;;;;;;5.78;1.93;;;9.40;99.90;;;14.00;89.03;100441.86;1704241;74;24933;-79
2020/12/24 02:53:47;;;;;;;7.07;1.96;;;9.40;99.90;;;13.86;88.22;100440.70;1708033;74;24541;-79
2020/12/24 02:56:04;;;;;;;9.24;2.55;;;9.30;99.90;;;14.02;87.33;100438.33;1705501;74;24508;-79
2020/12/24 02:58:22;;;;;;;6.98;2.59;;;9.30;99.90;;;13.87;87.09;100425.41;1707894;74;24936;-79
2020/12/24 03:00:38;;;;;;;4.77;1.66;;;9.30;99.90;;;13.93;88.19;100431.02;1708745;73;24503;-81
2020/12/24 03:02:54;;;;;;;6.58;1.99;;;9.20;99.90;;;13.55;88.39;100427.44;1705957;74;24501;-80
2020/12/24 03:05:10;;;;;;;5.71;1.82;;;9.20;99.90;;;13.78;87.36;100424.20;1708739;74;24481;-79
2020/12/24 03:07:27;;;;;;;5.92;2.28;;;9.10;99.90;;;13.75;87.44;100426.84;1709494;74;24445;-78
2020/12/24 03:09:43;;;;;;;10.71;2.61;;;9.10;99.90;;;13.77;87.84;100428.98;1714531;74;24473;-79
2020/12/24 03:11:59;;;;;;;6.62;2.02;;;9.10;99.90;;;13.73;88.07;100423.80;1718509;74;24534;-81
2020/12/24 03:14:18;;;;;;;7.22;1.85;;;9.10;99.90;;;13.67;87.36;100429.97;1714334;73;25105;-80
2020/12/24 03:16:42;;;;;;;4.70;2.16;;;9.10;99.90;;;13.67;87.00;100429.97;1713603;73;24861;-78
2020/12/24 03:18:58;;;;;;;7.44;1.96;;;9.00;99.90;;;13.87;87.00;100433.27;1716822;74;24469;-80
2020/12/24 03:21:14;;;;;;;7.40;2.12;;;9.00;99.90;;;13.81;86.69;100429.40;1705331;73;24485;-79
2020/12/24 03:23:30;;;;;;;5.07;1.95;;;9.00;99.90;;;13.82;87.03;100437.66;1711456;74;24437;-79
2020/12/24 03:25:46;;;;;;;4.99;2.12;;;9.00;99.90;;;13.62;87.32;100435.67;1705296;74;24516;-81
2020/12/24 03:28:03;;;;;;;8.19;2.40;;;9.00;99.90;;;13.66;87.06;100440.86;1705151;74;24503;-79
2020/12/24 03:30:20;;;;;;;8.68;2.34;;;9.00;99.90;;;14.11;85.97;100435.65;1717489;74;24497;-80
2020/12/24 03:32:37;;;;;;;6.72;2.00;;;9.10;99.90;;;14.02;85.61;100435.72;1707428;74;24462;-81
2020/12/24 03:34:53;;;;;;;7.63;2.56;;;9.00;99.90;;;13.62;87.35;100437.83;1709429;74;24443;-80
2020/12/24 03:37:09;;;;;;;6.83;2.35;;;9.00;99.90;;;13.86;86.52;100435.89;1708358;74;24592;-80
2020/12/24 03:39:25;;;;;;;6.99;2.60;;;9.00;99.90;;;13.86;86.62;100431.54;1705816;74;24473;-79
2020/12/24 03:41:42;;;;;;;10.46;2.90;;;9.00;99.90;;;13.97;85.87;100440.59;1719402;74;24515;-79
2020/12/24 03:43:58;;;;;;;10.22;2.80;;;9.00;99.90;;;13.96;86.50;100433.63;1715010;74;24952;-78
2020/12/24 03:46:14;;;;;;;11.35;3.00;;;9.00;99.90;;;13.95;86.15;100431.44;1713657;74;24972;-79
2020/12/24 03:48:30;;;;;;;5.96;2.62;;;9.00;99.90;;;14.00;85.37;100431.39;1705684;74;24449;-81
2020/12/24 03:50:46;;;;;;;7.84;3.06;;;9.00;99.90;;;13.87;86.34;100433.69;1706632;74;24957;-80
2020/12/24 03:53:02;;;;;;;9.90;3.06;;;9.00;99.90;;;13.93;86.36;100442.36;1711518;74;24921;-80
2020/12/24 03:55:22;;;;;;;7.59;2.67;;;9.00;99.90;;;14.07;85.58;100440.47;1713333;74;24879;-80
2020/12/24 03:57:38;;;;;;;11.45;3.14;;;9.00;99.90;;;14.06;85.66;100441.36;1705230;73;24881;-80
2020/12/24 03:59:54;;;;;;;12.20;2.61;;;9.00;99.90;;;14.06;85.31;100440.48;1703770;74;24441;-79
2020/12/24 04:02:10;;;;;;;12.25;2.96;;;9.00;99.90;;;13.94;85.74;100444.55;1706013;74;24492;-80
2020/12/24 04:04:26;;;;;;;7.68;2.59;;;9.00;99.90;;;13.88;85.94;100439.38;1707421;74;24951;-81
2020/12/24 04:06:42;;;;;;;11.92;2.97;;;9.00;99.90;;;13.77;86.95;100442.53;1706400;74;24438;-80
2020/12/24 04:08:58;;;;;;;9.71;2.72;;;9.00;99.90;;;13.94;86.10;100444.55;1711126;74;24460;-79
2020/12/24 04:11:16;;;;;;;11.46;3.30;;;9.00;99.90;;;13.94;86.29;100443.23;1705266;74;24488;-79
2020/12/24 04:13:33;;;;;;;12.57;3.83;;;9.00;99.90;;;13.95;86.10;100441.91;1706127;74;24444;-81
2020/12/24 04:15:49;;;;;;;8.33;3.20;;;9.00;99.90;;;13.93;86.83;100431.89;1710098;74;24510;-80
2020/12/24 04:18:07;;;;;;;8.13;2.84;;;9.00;99.90;;;13.98;86.63;100434.45;1704893;75;24478;-80
2020/12/24 04:20:33;;;;;;;13.58;3.18;;;9.00;99.90;;;13.88;86.99;100428.91;1704735;75;24462;-80
2020/12/24 04:22:50;;;;;;;9.87;2.68;;;9.00;99.90;;;14.05;86.85;100434.84;1706114;74;24428;-78
2020/12/24 04:25:06;;;;;;;9.74;3.14;;;9.00;99.90;;;13.96;86.96;100430.55;1709481;74;24453;-79
2020/12/24 04:27:24;;;;;;;11.04;3.39;;;9.10;99.90;;;14.04;86.58;100438.31;1705973;74;24450;-79
2020/12/24 04:29:40;;;;;;;10.05;3.24;;;9.10;99.90;;;14.06;86.79;100431.32;1705939;74;24497;-78
2020/12/24 04:31:58;;;;;;;6.66;2.90;;;9.00;99.90;;;13.93;86.96;100441.05;1711512;74;24476;-79
2020/12/24 04:34:14;;;;;;;13.45;2.88;;;9.10;99.90;;;14.00;86.77;100434.89;1709402;74;24518;-80
2020/12/24 04:36:31;;;;;;;8.84;2.86;;;9.00;99.90;;;13.72;87.42;100437.31;1708373;74;24475;-80
2020/12/24 04:38:46;;;;;;;10.28;3.03;;;9.10;99.90;;;13.87;87.69;100435.88;1705000;74;24984;-79
2020/12/24 04:41:04;;;;;;;9.52;2.77;;;9.10;99.90;;;13.94;87.22;100440.62;1712695;74;24929;-79
2020/12/24 04:43:21;;;;;;;10.97;3.19;;;9.10;99.90;;;13.97;86.73;100435.35;1714348;74;24473;-81
2020/12/24 04:45:39;;;;;;;11.41;3.30;;;9.10;99.90;;;14.03;85.79;100448.38;1708708;74;24435;-80
2020/12/24 04:47:59;;;;;;;7.67;2.65;;;9.10;99.90;;;13.91;86.69;100448.04;1708277;74;24423;-80
2020/12/24 04:50:16;;;;;;;9.40;2.78;;;9.10;99.90;;;14.08;85.91;100446.59;1705364;75;24932;-80
2020/12/24 04:52:32;;;;;;;10.57;2.89;;;9.10;99.90;;;14.14;85.46;100445.20;1710010;74;24876;-79
2020/12/24 04:54:50;;;;;;;10.19;3.04;;;9.10;99.90;;;14.09;85.51;100449.62;1717293;74;24429;-79
2020/12/24 04:57:11;;;;;;;10.08;2.30;;;9.10;99.90;;;14.09;85.49;100458.78;1714177;74;24894;-80
2020/12/24 04:59:27;;;;;;;9.88;3.15;;;9.10;99.90;;;13.98;86.32;100447.11;1714422;74;24908;-79
2020/12/24 05:01:51;;;;;;;11.56;3.07;;;9.10;99.90;;;14.13;86.81;100456.11;1709796;75;24714;-81
2020/12/24 05:04:11;;;;;;;11.02;2.77;;;9.10;99.90;;;14.14;85.77;100454.37;1718323;74;24542;-79
2020/12/24 05:06:26;;;;;;;6.22;2.00;;;9.00;99.90;;;14.09;85.57;100457.04;1708015;74;24980;-79
2020/12/24 05:08:44;;;;;;;7.19;2.32;;;9.00;99.90;;;13.81;86.04;100456.88;1718455;74;24498;-80
2020/12/24 05:11:08;;;;;;;10.36;2.75;;;9.00;99.90;;;13.96;85.95;100463.27;1720721;74;24471;-80
2020/12/24 05:13:26;;;;;;;10.23;3.20;;;8.90;99.90;;;13.78;86.30;100465.19;1714518;73;24568;-79
2020/12/24 05:15:46;;;;;;;13.52;2.84;;;8.80;99.90;;;14.11;85.77;100475.36;1699455;74;24436;-78
2020/12/24 05:18:22;;;;;;;11.25;3.30;;;8.80;99.90;;;13.68;86.03;100463.97;1709209;74;24914;-80
2020/12/24 05:20:43;;;;;;;13.42;2.93;;;8.80;99.90;;;13.60;87.41;100469.70;1714605;74;24488;-79
2020/12/24 05:23:15;;;;;;;8.80;3.00;;;8.70;99.90;;;13.60;87.51;100493.67;1714444;74;25217;-81
2020/12/24 05:25:31;;;;;;;2.18;1.32;;;8.70;99.90;;;13.27;90.17;100510.47;1709763;74;24443;-79
2020/12/24 05:27:57;;;;;;;1.10;0.68;;;8.70;99.90;;;12.20;88.89;100532.15;1708592;74;24529;-79
2020/12/24 05:30:28;;;;;;;1.00;0.78;;;8.50;99.90;;;11.02;91.89;100532.83;1710834;74;24417;-79
2020/12/24 05:32:50;;;;;;;1.51;0.91;;;8.10;99.90;;;10.98;93.45;100542.36;1718908;73;24445;-80
2020/12/24 05:35:13;;;;;;;0.86;0.74;;;7.80;99.90;;;10.97;91.86;100508.48;1706508;74;24511;-80
2020/12/24 05:37:29;;;;;;;0.81;0.76;;;7.50;99.90;;;10.50;94.74;100536.89;1703005;74;24496;-81
2020/12/24 05:39:48;;;;;;;0.59;0.55;;;7.30;99.90;;;10.11;95.80;100557.45;1707236;73;24915;-82
2020/12/24 05:42:07;;;;;;;0.63;0.63;;;7.10;99.90;;;10.14;95.38;100570.06;1709984;74;24453;-82
2020/12/24 05:44:24;;;;;;;0.64;0.64;;;6.90;99.90;;;9.91;96.07;100561.14;1709592;74;24403;-81
2020/12/24 05:46:49;;;;;;;0.73;0.72;;;6.70;99.90;;;9.80;95.93;100572.34;1713274;74;24520;-81
2020/12/24 05:49:13;;;;;;;0.50;0.50;;;6.50;99.90;;;9.73;96.41;100584.82;1709739;74;25061;-82
2020/12/24 05:51:29;;;;;;;0.93;0.59;;;6.40;99.90;;;9.54;96.28;100594.17;1706366;74;24493;-83
2020/12/24 05:53:46;;;;;;;0.54;0.54;;;6.20;99.90;;;9.46;97.19;100596.23;1712375;74;24441;-81
2020/12/24 05:56:06;;;;;;;0.80;0.78;;;6.10;99.90;;;9.66;96.94;100598.19;1705709;74;24461;-79
2020/12/24 05:58:25;;;;;;;0.51;0.48;;;6.00;99.90;;;9.54;96.57;100598.07;1706700;74;24449;-83
2020/12/24 06:00:46;;;;;;;0.46;0.46;;;5.90;99.90;;;9.43;96.70;100610.08;1708776;74;24910;-81
2020/12/24 06:03:17;;;;;;;0.36;0.36;;;5.90;99.90;;;9.24;96.04;100621.11;1709517;74;24512;-81
2020/12/24 06:05:38;;;;;;;0.71;0.52;;;5.80;99.90;;;9.22;96.22;100617.61;1714199;74;25047;-82
2020/12/24 06:08:01;;;;;;;0.59;0.59;;;5.70;99.90;;;9.34;96.62;100632.48;1710093;74;24852;-83
2020/12/24 06:10:22;;;;;;;0.67;0.65;;;5.60;99.90;;;9.47;96.22;100642.17;1705416;74;24456;-81
2020/12/24 06:12:52;;;;;;;0.62;0.53;;;5.60;99.90;;;9.32;96.43;100653.67;1706325;74;24982;-82
2020/12/24 06:15:26;;;;;;;1.95;0.68;;;5.50;99.90;;;9.06;96.50;100661.12;1707666;74;24446;-82
2020/12/24 06:17:47;;;;;;;1.00;0.50;;;5.50;99.90;;;9.14;96.52;100661.68;1705410;74;24371;-82
2020/12/24 06:20:04;;;;;;;0.51;0.51;;;5.40;99.90;;;9.16;96.02;100666.89;1714499;74;24976;-82
2020/12/24 06:22:25;;;;;;;0.66;0.64;;;5.40;99.90;;;9.11;96.32;100677.64;1706704;74;24536;-82
2020/12/24 06:24:47;;;;;;;1.63;0.54;;;5.30;99.90;;;9.06;95.88;100675.41;1709550;74;24462;-82
2020/12/24 06:27:18;;;;;;;0.56;0.53;;;5.30;99.90;;;9.00;95.18;100688.31;1718165;74;24432;-83
2020/12/24 06:29:40;;;;;;;0.76;0.50;;;5.20;99.90;;;8.92;95.46;100696.00;1710446;74;24434;-80
2020/12/24 06:31:59;;;;;;;0.41;0.41;;;5.20;99.90;;;8.96;95.28;100700.81;1705411;74;24460;-80
2020/12/24 06:34:30;;;;;;;0.57;0.50;;;5.10;99.90;;;8.83;95.53;100702.77;1709297;74;24447;-81
2020/12/24 06:36:48;;;;;;;1.21;0.56;;;5.10;99.90;;;8.77;95.41;100710.03;1712635;74;24485;-82
2020/12/24 06:39:06;;;;;;;0.91;0.61;;;5.00;99.90;;;8.79;95.67;100713.53;1707353;74;24892;-81
2020/12/24 06:41:43;;;;;;;0.57;0.50;;;5.00;99.90;;;8.93;95.25;100721.10;1707229;74;24852;-80
2020/12/24 06:44:01;;;;;;;0.50;0.50;;;5.00;99.90;;;8.99;95.02;100722.93;1707394;74;24946;-82
2020/12/24 06:46:18;;;;;;;0.54;0.45;;;5.00;99.90;;;8.76;95.21;100729.06;1706097;75;24444;-80
2020/12/24 06:48:34;;;;;;;0.53;0.49;;;5.00;99.90;;;8.77;95.29;100724.75;1707066;74;24481;-82
2020/12/24 06:50:53;;;;;;;0.67;0.50;;;5.00;99.90;;;8.88;95.31;100729.69;1707437;74;24640;-81
2020/12/24 06:53:28;;;;;;;1.46;0.69;;;5.00;99.90;;;8.98;95.14;100736.33;1705830;74;25033;-84
2020/12/24 06:55:44;;;;;;;0.61;0.61;;;5.00;99.90;;;8.94;95.51;100740.16;1713973;74;24982;-81
2020/12/24 06:58:00;;;;;;;0.50;0.50;;;5.00;99.90;;;9.21;96.02;100751.81;1713397;74;24436;-79
2020/12/24 07:00:24;;;;;;;0.92;0.43;;;5.00;99.90;;;9.23;94.75;100762.26;1707544;74;24510;-81
2020/12/24 07:02:40;;;;;;;0.70;0.69;;;5.00;99.90;;;9.23;94.17;100765.27;1716160;74;24481;-80
2020/12/24 07:04:56;;;;;;;0.95;0.70;;;5.10;99.90;;;9.30;95.39;100773.58;1705027;74;24923;-79
2020/12/24 07:07:13;;;;;;;0.70;0.70;;;5.10;99.90;;;9.26;94.86;100772.69;1712574;74;24575;-81
2020/12/24 07:09:48;;;;;;;1.27;0.80;;;5.10;99.90;;;9.25;95.38;100785.66;1707530;74;24501;-82
2020/12/24 07:12:04;;;;;;;1.06;0.73;;;5.10;99.90;;;9.31;95.16;100780.09;1709211;74;24925;-81
2020/12/24 07:14:29;;;;;;;1.45;0.84;;;5.10;99.90;;;9.16;94.74;100779.48;1705065;74;24463;-80
2020/12/24 07:16:59;;;;;;;2.50;0.92;;;5.10;99.90;;;9.11;94.46;100772.03;1708225;74;24444;-80
2020/12/24 07:19:19;;;;;;;1.01;0.88;;;5.10;99.90;;;9.14;94.50;100773.79;1707230;74;24429;-80
2020/12/24 07:21:39;;;;;;;1.91;0.90;;;5.10;99.90;;;9.18;94.21;100775.16;1707896;74;24972;-80
2020/12/24 07:24:01;;;;;;;1.60;1.09;;;5.10;99.90;;;9.32;94.63;100776.67;1711371;74;24463;-79
2020/12/24 07:26:21;;;;;;;1.52;1.17;;;5.10;99.90;;;9.35;93.80;100783.20;1712951;74;24519;-81
2020/12/24 07:28:40;;;;;;;1.34;1.15;;;5.10;99.90;;;9.36;93.95;100781.05;1707168;74;24433;-80
2020/12/24 07:31:09;;;;;;;1.25;1.15;;;5.10;99.90;;;9.56;94.24;100790.43;1708429;74;24440;-80
2020/12/24 07:33:25;;;;;;;1.69;1.18;;;5.10;99.90;;;9.64;93.88;100792.71;1681465;75;24486;-80
2020/12/24 07:35:45;;;;;;;1.11;1.00;;;5.20;99.90;;;9.69;93.59;100791.91;1705067;74;24473;-79
2020/12/24 07:38:01;;;;;;;1.28;1.18;;;5.20;99.90;;;9.63;92.79;100798.33;1712997;74;24495;-80
2020/12/24 07:40:18;;;;;;;1.34;1.24;;;5.20;99.90;;;9.85;93.81;100804.25;1705686;74;24539;-80
2020/12/24 07:42:34;;;;;;;1.29;1.00;;;5.30;99.90;;;9.82;93.33;100813.73;1706672;74;24451;-81
2020/12/24 07:44:52;;;;;;;1.45;1.18;;;5.30;99.90;;;9.81;93.58;100832.39;1705599;74;24403;-82
2020/12/24 07:47:09;;;;;;;1.88;1.14;;;5.30;99.90;;;9.84;93.17;100836.33;1713929;74;24527;-81
2020/12/24 07:49:27;;;;;;;1.27;1.14;;;5.40;99.90;;;9.79;93.90;100836.69;1710037;74;24444;-80
2020/12/24 07:51:58;;;;;;;1.80;1.14;;;5.40;99.90;;;9.87;93.15;100852.38;1708524;74;24882;-79
2020/12/24 07:54:15;;;;;;;1.43;1.22;;;5.40;99.90;;;9.71;94.19;100859.11;1708897;74;24473;-80
2020/12/24 07:56:33;;;;;;;2.10;1.35;;;5.40;99.90;;;9.61;94.41;100863.71;1709621;74;24526;-79
2020/12/24 07:59:01;;;;;;;1.72;1.02;;;5.40;99.90;;;9.68;95.26;100872.06;1711100;74;24444;-79
2020/12/24 08:01:23;;;;;;;1.36;1.08;;;5.50;99.90;;;9.81;95.13;100876.59;1714399;74;24439;-78
2020/12/24 08:03:40;;;;;;;1.34;1.11;;;5.50;99.90;;;9.97;95.56;100886.78;1709896;74;25171;-80
2020/12/24 08:06:05;;;;;;;1.73;1.22;;;5.50;99.90;;;10.06;95.14;100894.70;1716474;74;24566;-80
2020/12/24 08:08:26;;;;;;;1.50;1.09;;;5.50;99.90;;;10.11;95.63;100900.88;1705238;74;24872;-79
2020/12/24 08:10:44;;;;;;;1.63;1.17;;;5.60;99.90;;;9.87;95.34;100913.50;1705637;74;24464;-77
2020/12/24 08:13:08;;;;;;;1.91;1.21;;;5.60;99.90;;;9.95;95.12;100917.09;1708281;74;24789;-80
2020/12/24 08:15:26;;;;;;;1.58;1.27;;;5.60;99.90;;;9.89;95.59;100919.19;1702028;74;24929;-80
2020/12/24 08:17:50;;;;;;;1.95;1.43;;;5.60;99.90;;;9.81;95.65;100922.11;1706092;73;24560;-79
2020/12/24 08:20:10;;;;;;;2.40;1.48;;;5.70;99.90;;;9.79;96.02;100917.30;1707258;73;24469;-80
2020/12/24 08:22:32;;;;;;;1.78;1.42;;;5.70;99.90;;;9.77;96.07;100912.48;1704074;75;24501;-79
2020/12/24 08:24:51;;;;;;;2.11;1.50;;;5.70;99.90;;;9.90;96.31;100918.74;1704002;74;24548;-79
2020/12/24 08:27:08;;;;;;;1.91;1.57;;;5.70;99.90;;;9.77;96.10;100922.89;1703426;74;25188;-81
2020/12/24 08:29:27;;;;;;;1.90;1.59;;;5.70;99.90;;;9.75;96.54;100932.42;1703862;74;24449;-79
2020/12/24 08:31:46;;;;;;;2.34;1.90;;;5.70;99.90;;;9.75;96.44;100928.94;1703306;75;25072;-79
2020/12/24 08:34:02;;;;;;;2.67;2.00;;;5.70;99.90;;;9.58;96.48;100935.16;1704927;74;24457;-80
2020/12/24 08:36:30;;;;;;;2.24;1.86;;;5.70;99.90;;;9.77;96.98;100950.20;1704701;74;24483;-79
2020/12/24 08:38:47;;;;;;;2.18;1.85;;;5.70;99.90;;;9.81;96.71;100967.61;1711905;74;24500;-79
2020/12/24 08:41:03;;;;;;;1.95;1.64;;;5.70;99.90;;;9.78;96.60;100959.77;1709612;74;24495;-80
2020/12/24 08:43:23;;;;;;;2.63;1.71;;;5.70;99.90;;;9.73;96.56;100970.93;1703178;74;24517;-80
2020/12/24 08:45:48;;;;;;;2.74;1.60;;;5.80;99.90;;;9.81;96.79;100970.21;1706277;74;24508;-79
2020/12/24 08:48:06;;;;;;;1.47;1.37;;;5.80;99.90;;;9.85;96.67;100966.80;1703953;74;24440;-79
2020/12/24 08:50:33;;;;;;;1.60;1.49;;;5.80;99.90;;;9.87;96.81;100968.12;1710808;74;24709;-81
2020/12/24 08:52:49;;;;;;;1.88;1.63;;;5.80;99.90;;;9.92;96.80;100973.85;1703934;74;24473;-79
2020/12/24 08:55:10;;;;;;;2.16;1.96;;;5.80;99.90;;;9.86;96.83;100984.17;1711780;74;24496;-80
2020/12/24 08:57:26;;;;;;;3.59;1.93;;;5.90;99.90;;;9.81;96.71;100994.92;1674461;75;24531;-80
2020/12/24 08:59:42;;;;;;;2.70;1.94;;;5.90;99.90;;;9.82;96.97;101007.47;1682658;75;24536;-80
2020/12/24 09:02:01;;;;;;;2.56;2.36;;;5.90;99.90;;;9.80;96.90;101007.90;1680161;75;24439;-81
2020/12/24 09:04:19;;;;;;;2.88;2.41;;;6.00;99.90;;;9.71;96.86;101013.81;1675439;75;24897;-80
2020/12/24 09:06:41;;;;;;;3.08;2.33;;;6.00;99.90;;;9.76;96.83;101015.18;1672635;76;24452;-80
2020/12/24 09:09:01;;;;;;;2.51;2.31;;;6.00;99.90;;;9.87;97.10;101019.72;1679988;74;24446;-79
2020/12/24 09:11:29;;;;;;;2.97;2.39;;;6.00;99.90;;;9.84;97.21;101023.57;1676860;75;24542;-79
2020/12/24 09:13:52;;;;;;;2.45;2.25;;;6.00;99.90;;;9.89;97.09;101035.34;1675975;75;24938;-79
2020/12/24 09:16:15;;;;;;;2.48;2.27;;;6.00;99.90;;;9.81;97.01;101046.93;1673883;75;24459;-84
2020/12/24 09:18:32;;;;;;;3.68;2.30;;;6.00;99.90;;;10.01;97.14;101045.94;1685715;74;24568;-80
2020/12/24 09:20:49;;;;;;;2.21;2.01;;;6.00;99.90;;;10.11;96.58;101047.45;1673357;75;25328;-83
2020/12/24 09:23:12;;;;;;;3.24;2.30;;;6.00;99.90;;;10.00;96.85;101052.88;1673433;76;24507;-81
2020/12/24 09:25:36;;;;;;;3.32;2.24;;;6.00;99.90;;;10.05;96.91;101047.75;1676789;75;24507;-79
2020/12/24 09:27:52;;;;;;;2.84;2.61;;;6.00;99.90;;;10.13;96.52;101042.28;1676438;75;24540;-81
2020/12/24 09:30:08;;;;;;;3.07;2.34;;;6.00;99.90;;;10.12;96.88;101045.70;1673031;75;24574;-80
2020/12/24 09:32:27;;;;;;;3.10;2.29;;;6.00;99.90;;;9.91;96.55;101046.66;1674735;75;24552;-80
2020/12/24 09:34:44;;;;;;;3.05;2.47;;;6.00;99.90;;;10.10;97.14;101056.09;1673831;75;24489;-79
2020/12/24 09:37:00;;;;;;;2.61;2.41;;;6.00;99.90;;;9.97;96.91;101069.75;1675702;75;25121;-80
2020/12/24 09:39:19;;;;;;;2.58;2.29;;;6.00;99.90;;;10.00;97.13;101074.11;1674270;74;25022;-81
2020/12/24 09:41:43;;;;;;;2.71;2.51;;;6.00;99.90;;;9.70;97.20;101080.98;1675303;75;24516;-82
2020/12/24 09:44:00;;;;;;;4.00;2.82;;;6.00;99.90;;;9.95;97.37;101074.04;1674556;74;24527;-81
2020/12/24 09:46:18;;;;;;;4.29;2.81;;;6.00;99.90;;;10.11;97.19;101077.37;1675742;74;24855;-81